Time;durP1;ratioP1;P1;durP2;ratioP2;P2;SDS_P1;SDS_P2;PMS_P1;PMS_P2;Temp;Humidity;BMP_temperature;BMP_pressure;BME280_temperature;BME280_humidity;BME280_pressure;Samples;Min_cycle;Max_cycle;Signal;HPM_P1;HPM_P2
2023/04/03 00:01:08;;;;;;;9.83;6.77;;;5.20;99.90;;;;;;5052359;28;20608;-78
2023/04/03 00:03:33;;;;;;;12.57;7.63;;;5.20;99.90;;;;;;5050881;28;20174;-76
2023/04/03 00:06:00;;;;;;;12.57;7.20;;;5.20;99.90;;;;;;5050898;28;20172;-77
2023/04/03 00:08:26;;;;;;;10.93;7.40;;;5.20;99.90;;;;;;5053422;28;20236;-78
2023/04/03 00:10:51;;;;;;;11.00;7.97;;;5.20;99.90;;;;;;5055014;28;20175;-77
2023/04/03 00:13:17;;;;;;;12.00;7.43;;;5.10;99.90;;;;;;5054315;28;20551;-76
2023/04/03 00:15:43;;;;;;;11.33;6.93;;;5.10;99.90;;;;;;5055964;28;20211;-77
2023/04/03 00:18:09;;;;;;;10.30;7.20;;;5.00;99.90;;;;;;5054231;28;20303;-77
2023/04/03 00:20:35;;;;;;;8.67;6.97;;;5.00;99.90;;;;;;5054261;28;20184;-77
2023/04/03 00:23:01;;;;;;;10.83;6.43;;;5.10;99.90;;;;;;5054371;28;20174;-76
2023/04/03 00:25:27;;;;;;;11.90;6.50;;;5.10;99.90;;;;;;5054251;28;20543;-78
2023/04/03 00:27:54;;;;;;;10.20;6.67;;;5.00;99.90;;;;;;5054206;28;20179;-78
2023/04/03 00:30:21;;;;;;;11.07;7.10;;;5.00;99.90;;;;;;5054332;28;20172;-77
2023/04/03 00:32:51;;;;;;;12.50;6.73;;;5.00;99.90;;;;;;5054371;28;20174;-77
2023/04/03 00:35:19;;;;;;;10.90;6.87;;;4.90;99.90;;;;;;5054745;28;20203;-78
2023/04/03 00:37:45;;;;;;;8.73;6.47;;;4.90;99.90;;;;;;5054389;28;20208;-78
2023/04/03 00:40:13;;;;;;;8.30;6.50;;;5.00;99.90;;;;;;5054540;28;20544;-77
2023/04/03 00:42:43;;;;;;;9.97;6.17;;;5.00;99.90;;;;;;5054390;28;20179;-77
2023/04/03 00:45:17;;;;;;;9.37;6.57;;;4.90;99.90;;;;;;5054293;28;20234;-77
2023/04/03 00:47:43;;;;;;;12.60;6.90;;;4.90;99.90;;;;;;5054013;28;20183;-77
2023/04/03 00:50:09;;;;;;;9.63;6.03;;;4.70;99.90;;;;;;5055145;28;20176;-78
2023/04/03 00:52:37;;;;;;;10.87;7.60;;;4.70;99.90;;;;;;5054002;28;20175;-77
2023/04/03 00:55:07;;;;;;;9.43;5.90;;;4.80;99.90;;;;;;5054459;28;20177;-77
2023/04/03 00:57:33;;;;;;;13.20;5.87;;;4.80;99.90;;;;;;5054464;28;20672;-78
2023/04/03 01:00:07;;;;;;;11.17;6.67;;;4.80;99.90;;;;;;5054192;28;20644;-78
2023/04/03 01:02:32;;;;;;;7.97;5.70;;;4.80;99.90;;;;;;5053919;28;20183;-78
2023/04/03 01:04:58;;;;;;;9.10;5.83;;;4.80;99.90;;;;;;5053865;28;20172;-77
2023/04/03 01:07:30;;;;;;;10.63;6.63;;;4.80;99.90;;;;;;5054961;28;20187;-77
2023/04/03 01:09:59;;;;;;;10.60;6.27;;;4.70;99.90;;;;;;5053920;28;20206;-78
2023/04/03 01:12:38;;;;;;;9.93;6.00;;;4.60;99.90;;;;;;5053900;28;20184;-76
2023/04/03 01:15:12;;;;;;;8.67;6.10;;;4.60;99.90;;;;;;5053709;28;20174;-77
2023/04/03 01:17:42;;;;;;;9.33;6.53;;;4.70;99.90;;;;;;5053431;28;20246;-76
2023/04/03 01:20:35;;;;;;;9.73;5.83;;;4.60;99.90;;;;;;5052475;28;20214;-77
2023/04/03 01:23:12;;;;;;;7.90;6.27;;;4.60;99.90;;;;;;5053451;28;20263;-77
2023/04/03 01:25:50;;;;;;;9.57;6.13;;;4.50;99.90;;;;;;5054806;28;20167;-77
2023/04/03 01:28:20;;;;;;;10.97;6.93;;;4.50;99.90;;;;;;5053720;28;20180;-78
2023/04/03 01:30:56;;;;;;;9.17;6.60;;;4.40;99.90;;;;;;5054849;28;20564;-79
2023/04/03 01:33:22;;;;;;;8.87;6.07;;;4.30;99.90;;;;;;5053732;28;20631;-76
2023/04/03 01:35:47;;;;;;;11.17;6.57;;;4.30;99.90;;;;;;5053163;28;20180;-76
2023/04/03 01:38:13;;;;;;;11.63;6.57;;;4.30;99.90;;;;;;5053261;28;20196;-78
2023/04/03 01:40:39;;;;;;;11.67;6.90;;;4.30;99.90;;;;;;5054632;28;20182;-78
2023/04/03 01:43:05;;;;;;;9.07;6.67;;;4.20;99.90;;;;;;5053142;28;20335;-76
2023/04/03 01:45:31;;;;;;;10.53;6.30;;;4.20;99.90;;;;;;5053154;28;20203;-77
2023/04/03 01:47:57;;;;;;;10.07;6.67;;;4.10;99.90;;;;;;5053093;28;20170;-78
2023/04/03 01:50:22;;;;;;;9.67;6.77;;;4.10;99.90;;;;;;5052858;28;20180;-77
2023/04/03 01:52:48;;;;;;;8.47;6.60;;;4.10;99.90;;;;;;5053121;28;20639;-80
2023/04/03 01:55:15;;;;;;;10.43;6.00;;;4.10;99.90;;;;;;5053791;28;20615;-81
2023/04/03 01:57:40;;;;;;;9.50;6.60;;;4.10;99.90;;;;;;5053685;28;20189;-80
2023/04/03 02:00:07;;;;;;;9.87;6.50;;;4.20;99.90;;;;;;5053718;28;20686;-80
2023/04/03 02:02:33;;;;;;;9.20;6.33;;;4.20;99.90;;;;;;5053093;28;20268;-81
2023/04/03 02:04:59;;;;;;;8.10;6.07;;;4.10;99.90;;;;;;5053241;28;20169;-80
2023/04/03 02:07:25;;;;;;;8.73;6.27;;;4.30;99.90;;;;;;5053151;28;20197;-80
2023/04/03 02:09:50;;;;;;;8.17;5.77;;;4.10;99.90;;;;;;5053059;28;20181;-80
2023/04/03 02:12:16;;;;;;;9.37;6.27;;;4.00;99.90;;;;;;5052592;28;20526;-82
2023/04/03 02:14:42;;;;;;;10.37;6.50;;;4.00;99.90;;;;;;5052688;28;20178;-81
2023/04/03 02:17:08;;;;;;;8.33;6.10;;;4.10;99.90;;;;;;5052348;28;20550;-80
2023/04/03 02:19:35;;;;;;;10.30;6.80;;;4.20;99.90;;;;;;5052514;28;20206;-81
2023/04/03 02:22:05;;;;;;;7.20;5.80;;;4.20;99.90;;;;;;5054176;28;20632;-81
2023/04/03 02:24:30;;;;;;;9.67;6.37;;;4.10;99.90;;;;;;5052745;28;20165;-81
2023/04/03 02:26:57;;;;;;;11.67;6.20;;;4.10;99.90;;;;;;5052710;28;20684;-81
2023/04/03 02:29:23;;;;;;;9.43;6.10;;;4.00;99.90;;;;;;5052372;28;20181;-79
2023/04/03 02:31:50;;;;;;;7.33;5.90;;;4.00;99.90;;;;;;5052340;28;20629;-81
2023/04/03 02:34:17;;;;;;;8.03;5.97;;;3.90;99.90;;;;;;5051689;28;20176;-82
2023/04/03 02:36:44;;;;;;;10.10;5.80;;;3.90;99.90;;;;;;5052170;28;20230;-81
2023/04/03 02:39:09;;;;;;;9.30;6.07;;;3.90;99.90;;;;;;5052416;28;20217;-81
2023/04/03 02:41:35;;;;;;;11.63;6.53;;;3.90;99.90;;;;;;5052493;28;20175;-79
2023/04/03 02:44:03;;;;;;;7.93;6.00;;;3.80;99.90;;;;;;5052087;28;20179;-80
2023/04/03 02:46:29;;;;;;;10.37;6.00;;;3.80;99.90;;;;;;5052018;28;20208;-80
2023/04/03 02:48:54;;;;;;;6.27;5.53;;;3.80;99.90;;;;;;5052019;28;20207;-81
2023/04/03 02:51:20;;;;;;;8.93;6.23;;;3.80;99.90;;;;;;5052297;28;20562;-81
2023/04/03 02:53:46;;;;;;;8.67;6.07;;;3.80;99.90;;;;;;5051663;28;20164;-81
2023/04/03 02:56:11;;;;;;;7.87;6.40;;;3.90;99.90;;;;;;5051771;28;20256;-80
2023/04/03 02:58:37;;;;;;;7.47;5.53;;;4.00;99.90;;;;;;5051945;28;20601;-81
2023/04/03 03:01:04;;;;;;;9.93;6.23;;;4.00;99.90;;;;;;5052957;28;20605;-80
2023/04/03 03:03:30;;;;;;;8.93;6.17;;;3.90;99.90;;;;;;5051380;28;20177;-80
2023/04/03 03:06:06;;;;;;;6.93;5.23;;;4.00;99.90;;;;;;5051492;28;20229;-79
2023/04/03 03:08:32;;;;;;;9.70;6.17;;;4.00;99.90;;;;;;5053292;28;20534;-80
2023/04/03 03:10:58;;;;;;;10.00;6.33;;;3.90;99.90;;;;;;5051950;28;20177;-80
2023/04/03 03:13:25;;;;;;;11.60;6.40;;;3.90;99.90;;;;;;5051777;28;20179;-79
2023/04/03 03:15:51;;;;;;;8.97;6.23;;;4.00;99.90;;;;;;5052933;28;20474;-80
2023/04/03 03:18:17;;;;;;;7.70;5.50;;;3.90;99.90;;;;;;5053219;28;20257;-80
2023/04/03 03:20:43;;;;;;;8.33;5.73;;;4.00;99.90;;;;;;5052352;28;20553;-80
2023/04/03 03:23:09;;;;;;;7.97;6.33;;;3.90;99.90;;;;;;5035073;28;20709;-80
2023/04/03 03:25:42;;;;;;;10.40;6.27;;;3.90;99.90;;;;;;5052492;28;20183;-81
2023/04/03 03:28:07;;;;;;;8.33;6.30;;;3.80;99.90;;;;;;5051821;28;20180;-80
2023/04/03 03:30:33;;;;;;;10.37;7.07;;;3.80;99.90;;;;;;5051736;28;20165;-79
2023/04/03 03:32:59;;;;;;;9.70;6.13;;;3.90;99.90;;;;;;5051552;28;20188;-78
2023/04/03 03:35:25;;;;;;;7.40;5.83;;;3.90;99.90;;;;;;5051743;28;20258;-79
2023/04/03 03:37:53;;;;;;;9.13;6.80;;;3.90;99.90;;;;;;5052009;28;20208;-80
2023/04/03 03:40:19;;;;;;;7.77;5.80;;;3.80;99.90;;;;;;5051346;28;20229;-80
2023/04/03 03:42:46;;;;;;;7.00;6.13;;;3.70;99.90;;;;;;5053000;28;20652;-82
2023/04/03 03:45:13;;;;;;;7.33;6.23;;;3.70;99.90;;;;;;5058054;28;20179;-80
2023/04/03 03:47:43;;;;;;;9.17;6.33;;;3.60;99.90;;;;;;5057939;28;20709;-79
2023/04/03 03:50:09;;;;;;;9.40;6.10;;;3.60;99.90;;;;;;5058197;28;20165;-80
2023/04/03 03:52:34;;;;;;;10.37;6.87;;;3.50;99.90;;;;;;5057714;28;20168;-81
2023/04/03 03:55:00;;;;;;;9.87;6.63;;;3.50;99.90;;;;;;5057811;28;20607;-80
2023/04/03 03:57:28;;;;;;;8.27;6.27;;;3.50;99.90;;;;;;5057732;28;20281;-80
2023/04/03 03:59:54;;;;;;;11.23;6.40;;;3.50;99.90;;;;;;5058249;28;20528;-79
2023/04/03 04:02:20;;;;;;;10.37;6.33;;;3.70;99.90;;;;;;5059284;28;20249;-81
2023/04/03 04:04:47;;;;;;;7.03;6.33;;;3.60;99.90;;;;;;5042411;28;20242;-80
2023/04/03 04:07:12;;;;;;;14.83;6.87;;;3.50;99.90;;;;;;5059334;28;20187;-81
2023/04/03 04:09:38;;;;;;;8.23;6.43;;;3.50;99.90;;;;;;5057609;28;20183;-82
2023/04/03 04:12:04;;;;;;;10.27;7.73;;;3.60;99.90;;;;;;5058993;28;20180;-80
2023/04/03 04:14:29;;;;;;;11.97;6.67;;;3.60;99.90;;;;;;5057947;28;20270;-81
2023/04/03 04:16:55;;;;;;;7.90;6.20;;;3.50;99.90;;;;;;5058337;28;20657;-81
2023/04/03 04:19:21;;;;;;;11.33;7.03;;;3.40;99.90;;;;;;5058538;28;20165;-81
2023/04/03 04:21:46;;;;;;;8.93;6.90;;;3.40;99.90;;;;;;5058374;28;20169;-81
2023/04/03 04:24:12;;;;;;;8.90;6.80;;;3.30;99.90;;;;;;5058161;28;20171;-80
2023/04/03 04:26:39;;;;;;;7.50;5.93;;;3.30;99.90;;;;;;5058307;28;20182;-81
2023/04/03 04:29:04;;;;;;;12.07;6.63;;;3.20;99.90;;;;;;5059388;28;20296;-80
2023/04/03 04:31:30;;;;;;;8.83;6.77;;;3.30;99.90;;;;;;5057475;28;20183;-77
2023/04/03 04:33:56;;;;;;;10.20;7.30;;;3.20;99.90;;;;;;5059472;28;20176;-77
2023/04/03 04:36:21;;;;;;;14.83;8.03;;;3.20;99.90;;;;;;5057781;28;20193;-78
2023/04/03 04:38:47;;;;;;;10.73;8.27;;;3.30;99.90;;;;;;5057845;28;20249;-79
2023/04/03 04:41:12;;;;;;;10.97;7.03;;;3.20;99.90;;;;;;5057843;28;20206;-80
2023/04/03 04:43:38;;;;;;;11.70;7.60;;;3.10;99.90;;;;;;5059054;28;20164;-79
2023/04/03 04:46:10;;;;;;;12.73;7.30;;;3.20;99.90;;;;;;5058136;28;20184;-79
2023/04/03 04:48:36;;;;;;;12.37;7.10;;;3.10;99.90;;;;;;5057138;28;20263;-79
2023/04/03 04:51:03;;;;;;;11.80;7.90;;;3.10;99.90;;;;;;5056782;28;20555;-78
2023/04/03 04:53:28;;;;;;;13.73;7.57;;;3.00;99.90;;;;;;5057017;28;20183;-79
2023/04/03 04:55:54;;;;;;;10.53;7.10;;;3.00;99.90;;;;;;5053034;28;20625;-80
2023/04/03 04:58:20;;;;;;;9.47;7.10;;;3.00;99.90;;;;;;5055194;28;20282;-80
2023/04/03 05:00:47;;;;;;;12.30;7.67;;;3.00;99.90;;;;;;5054050;28;20544;-79
2023/04/03 05:03:13;;;;;;;12.33;7.70;;;2.90;99.90;;;;;;5055209;28;20514;-78
2023/04/03 05:05:38;;;;;;;12.60;7.77;;;2.90;99.90;;;;;;5053611;28;20178;-78
2023/04/03 05:08:04;;;;;;;11.20;8.07;;;2.90;99.90;;;;;;5053686;28;20299;-79
2023/04/03 05:10:31;;;;;;;14.63;7.60;;;3.00;99.90;;;;;;5053725;28;20625;-79
2023/04/03 05:12:58;;;;;;;8.90;7.47;;;3.00;99.90;;;;;;5053639;28;20532;-78
2023/04/03 05:15:24;;;;;;;10.50;8.13;;;2.90;99.90;;;;;;5055396;28;20181;-79
2023/04/03 05:17:50;;;;;;;13.93;8.23;;;2.90;99.90;;;;;;5053698;28;20299;-78
2023/04/03 05:20:15;;;;;;;14.27;8.70;;;2.90;99.90;;;;;;5053691;28;20179;-78
2023/04/03 05:22:41;;;;;;;14.70;8.60;;;2.90;99.90;;;;;;5053627;28;20643;-78
2023/04/03 05:25:08;;;;;;;13.83;8.30;;;2.90;99.90;;;;;;5053701;28;20172;-78
2023/04/03 05:27:34;;;;;;;11.03;7.60;;;2.90;99.90;;;;;;5053245;28;20262;-81
2023/04/03 05:30:07;;;;;;;10.10;7.33;;;2.90;99.90;;;;;;5048311;28;20686;-80
2023/04/03 05:32:33;;;;;;;14.27;8.57;;;2.90;99.90;;;;;;5043555;28;20254;-78
2023/04/03 05:35:09;;;;;;;13.97;7.77;;;3.00;99.90;;;;;;5037727;28;20192;-79
2023/04/03 05:37:35;;;;;;;13.53;8.10;;;3.00;99.90;;;;;;5049126;28;20204;-78
2023/04/03 05:40:02;;;;;;;11.80;7.83;;;3.20;99.90;;;;;;5053055;28;20535;-81
2023/04/03 05:42:28;;;;;;;10.20;7.70;;;3.10;99.90;;;;;;5052278;28;20556;-81
2023/04/03 05:44:56;;;;;;;12.90;7.67;;;3.00;99.90;;;;;;5052849;28;20179;-79
2023/04/03 05:47:21;;;;;;;13.43;8.17;;;2.90;99.90;;;;;;5053355;28;20168;-79
2023/04/03 05:49:47;;;;;;;12.70;9.00;;;3.00;99.90;;;;;;5052668;28;20176;-86
2023/04/03 05:52:29;;;;;;;11.47;7.87;;;3.00;99.90;;;;;;5052792;28;20263;-79
2023/04/03 05:54:56;;;;;;;16.10;8.83;;;3.00;99.90;;;;;;5052695;28;20187;-81
2023/04/03 05:57:22;;;;;;;13.87;9.17;;;3.10;99.90;;;;;;5052838;28;20207;-79
2023/04/03 05:59:48;;;;;;;12.40;9.23;;;3.10;99.90;;;;;;5052838;28;20695;-80
2023/04/03 06:02:20;;;;;;;14.40;8.90;;;3.10;99.90;;;;;;5051695;28;20179;-80
2023/04/03 06:04:47;;;;;;;14.13;8.87;;;3.30;99.90;;;;;;5062270;28;20176;-80
2023/04/03 06:07:22;;;;;;;17.27;10.40;;;3.40;99.90;;;;;;5032171;28;20672;-79
2023/04/03 06:09:49;;;;;;;12.37;8.80;;;3.30;99.90;;;;;;5046404;28;20175;-79
2023/04/03 06:12:15;;;;;;;10.50;8.67;;;3.40;99.90;;;;;;5053001;28;20266;-83
2023/04/03 06:14:41;;;;;;;11.67;8.80;;;3.40;99.90;;;;;;5053477;28;20195;-82
2023/04/03 06:17:08;;;;;;;13.77;9.17;;;3.50;99.90;;;;;;5055064;28;20196;-86
2023/04/03 06:19:34;;;;;;;14.30;9.40;;;3.50;99.90;;;;;;5055596;28;20164;-87
2023/04/03 06:22:02;;;;;;;14.67;9.10;;;3.60;99.90;;;;;;5047445;28;20195;-86
2023/04/03 06:24:31;;;;;;;11.57;9.60;;;3.60;99.90;;;;;;5056272;28;20170;-85
2023/04/03 06:26:59;;;;;;;13.77;9.70;;;3.60;99.90;;;;;;5055200;28;20176;-87
2023/04/03 06:29:25;;;;;;;14.67;9.80;;;3.50;99.90;;;;;;5055898;28;20525;-85
2023/04/03 06:31:51;;;;;;;16.20;9.47;;;3.60;99.90;;;;;;5047934;28;20657;-86
2023/04/03 06:34:17;;;;;;;17.53;9.27;;;3.70;99.90;;;;;;5046408;28;20184;-80
2023/04/03 06:36:44;;;;;;;12.67;8.70;;;3.70;99.90;;;;;;5053016;28;20218;-79
2023/04/03 06:39:16;;;;;;;10.07;8.50;;;3.90;99.90;;;;;;5051752;28;20192;-77
2023/04/03 06:41:42;;;;;;;14.93;9.30;;;4.00;99.90;;;;;;5051548;28;20168;-79
2023/04/03 06:44:10;;;;;;;13.03;8.73;;;3.90;99.90;;;;;;5051022;28;20182;-77
2023/04/03 06:46:37;;;;;;;13.63;9.43;;;4.00;99.90;;;;;;5051968;28;20183;-78
2023/04/03 06:49:03;;;;;;;18.93;10.00;;;4.00;99.90;;;;;;5052373;28;20527;-79
2023/04/03 06:51:30;;;;;;;11.97;9.10;;;4.00;99.90;;;;;;5053712;28;20183;-78
2023/04/03 06:53:58;;;;;;;13.10;10.33;;;4.00;99.90;;;;;;5052172;28;20177;-78
2023/04/03 06:56:25;;;;;;;13.13;8.97;;;4.20;99.90;;;;;;5051370;28;20171;-79
2023/04/03 06:58:54;;;;;;;17.37;9.60;;;4.40;99.90;;;;;;5052594;28;20179;-80
2023/04/03 07:01:20;;;;;;;12.43;9.70;;;4.70;99.90;;;;;;5052371;28;20172;-78
2023/04/03 07:03:47;;;;;;;13.27;8.40;;;4.70;99.90;;;;;;5051836;28;20226;-78
2023/04/03 07:06:14;;;;;;;12.07;9.40;;;4.60;99.90;;;;;;5051588;28;20246;-79
2023/04/03 07:08:41;;;;;;;12.87;8.80;;;4.70;99.90;;;;;;5051148;28;20176;-79
2023/04/03 07:11:09;;;;;;;12.17;8.33;;;4.50;99.90;;;;;;5052395;28;20530;-78
2023/04/03 07:13:37;;;;;;;12.73;8.37;;;4.50;99.90;;;;;;5051561;28;20233;-79
2023/04/03 07:16:04;;;;;;;11.20;9.13;;;4.50;99.90;;;;;;5051875;28;20524;-77
2023/04/03 07:18:32;;;;;;;11.73;8.83;;;4.60;99.90;;;;;;5051225;28;20215;-78
2023/04/03 07:21:00;;;;;;;10.97;8.23;;;4.80;99.90;;;;;;5052176;28;20188;-78
2023/04/03 07:23:27;;;;;;;12.17;8.20;;;4.90;99.90;;;;;;5051686;28;20693;-78
2023/04/03 07:25:54;;;;;;;12.10;8.03;;;4.90;99.90;;;;;;5051912;28;20165;-77
2023/04/03 07:28:22;;;;;;;13.40;8.00;;;4.90;99.90;;;;;;5051763;28;20168;-79
2023/04/03 07:31:02;;;;;;;10.70;7.40;;;4.90;99.90;;;;;;5051689;28;20179;-78
2023/04/03 07:33:27;;;;;;;11.23;7.37;;;4.90;99.90;;;;;;5052729;28;20586;-77
2023/04/03 07:35:54;;;;;;;14.13;8.00;;;5.00;99.90;;;;;;5051675;28;20201;-79
2023/04/03 07:38:19;;;;;;;11.53;7.60;;;5.10;99.90;;;;;;5051601;28;20206;-78
2023/04/03 07:40:50;;;;;;;12.43;7.57;;;5.20;99.90;;;;;;5051915;28;20169;-77
2023/04/03 07:43:17;;;;;;;10.73;7.40;;;5.40;99.90;;;;;;5051464;28;20165;-78
2023/04/03 07:45:44;;;;;;;9.70;7.63;;;5.40;99.90;;;;;;5054316;28;20177;-80
2023/04/03 07:48:11;;;;;;;8.57;7.10;;;5.50;99.90;;;;;;5053045;28;20174;-78
2023/04/03 07:50:39;;;;;;;11.33;8.17;;;5.70;99.90;;;;;;5051426;28;20764;-79
2023/04/03 07:53:06;;;;;;;11.37;7.07;;;5.70;99.90;;;;;;5051221;28;20184;-79
2023/04/03 07:55:32;;;;;;;13.60;8.30;;;5.70;99.90;;;;;;5051715;28;20244;-79
2023/04/03 07:57:57;;;;;;;12.63;7.80;;;5.60;99.90;;;;;;5051507;28;20695;-78
2023/04/03 08:00:24;;;;;;;8.20;6.63;;;5.60;99.90;;;;;;5051708;28;20162;-77
2023/04/03 08:02:51;;;;;;;10.40;7.47;;;5.70;99.90;;;;;;5052487;28;20157;-78
2023/04/03 08:05:23;;;;;;;8.87;7.27;;;5.70;99.90;;;;;;5051321;28;20195;-78
2023/04/03 08:07:49;;;;;;;10.87;7.30;;;5.70;99.90;;;;;;5052207;28;20186;-79
2023/04/03 08:10:16;;;;;;;13.57;7.57;;;5.90;99.90;;;;;;5052470;28;20281;-79
2023/04/03 08:12:46;;;;;;;11.50;7.20;;;6.00;99.90;;;;;;5051086;28;20264;-79
2023/04/03 08:15:12;;;;;;;10.40;7.50;;;6.10;99.90;;;;;;5052212;28;20186;-77
2023/04/03 08:17:37;;;;;;;9.80;6.47;;;6.20;99.90;;;;;;5052203;28;20659;-78
2023/04/03 08:20:06;;;;;;;9.83;6.87;;;6.20;99.90;;;;;;5051127;28;20260;-77
2023/04/03 08:22:32;;;;;;;11.10;7.00;;;6.20;99.90;;;;;;5051876;28;20209;-78
2023/04/03 08:24:58;;;;;;;11.80;6.90;;;6.30;99.90;;;;;;5052179;28;20161;-77
2023/04/03 08:27:23;;;;;;;9.97;7.10;;;6.40;99.90;;;;;;5051122;28;20178;-79
2023/04/03 08:29:51;;;;;;;12.23;6.93;;;6.40;99.90;;;;;;5052902;28;20644;-80
2023/04/03 08:32:17;;;;;;;8.87;6.60;;;6.60;99.90;;;;;;5054875;28;20639;-78
2023/04/03 08:34:43;;;;;;;9.37;6.13;;;6.80;99.90;;;;;;5056228;28;20153;-77
2023/04/03 08:37:09;;;;;;;8.50;5.80;;;6.80;99.90;;;;;;5054572;28;20210;-78
2023/04/03 08:39:35;;;;;;;10.90;6.67;;;6.80;99.90;;;;;;5056019;28;20536;-78
2023/04/03 08:42:13;;;;;;;8.30;5.43;;;6.90;99.90;;;;;;5056227;28;20253;-79
2023/04/03 08:44:50;;;;;;;9.87;5.80;;;6.90;99.90;;;;;;5056418;28;20245;-78
2023/04/03 08:47:37;;;;;;;9.23;6.00;;;7.00;99.90;;;;;;5055952;28;20281;-77
2023/04/03 08:50:22;;;;;;;8.53;5.67;;;7.00;99.90;;;;;;5057221;28;20175;-79
2023/04/03 08:52:51;;;;;;;9.87;5.37;;;7.10;99.90;;;;;;5054439;28;20164;-76
2023/04/03 08:55:27;;;;;;;12.50;5.80;;;7.10;99.90;;;;;;5054404;28;20175;-79
2023/04/03 08:58:02;;;;;;;7.37;4.83;;;7.20;99.90;;;;;;5054544;28;20682;-79
2023/04/03 09:00:48;;;;;;;7.93;5.20;;;7.30;99.90;;;;;;5054434;28;20208;-79
2023/04/03 09:03:17;;;;;;;8.57;5.23;;;7.30;99.90;;;;;;5054509;28;20174;-76
2023/04/03 09:06:11;;;;;;;8.17;4.50;;;7.50;99.90;;;;;;5055179;28;20171;-80
2023/04/03 09:09:00;;;;;;;10.60;4.73;;;7.50;99.90;;;;;;5054290;28;20183;-77
2023/04/03 09:12:09;;;;;;;8.87;5.03;;;7.70;99.90;;;;;;5055143;28;20194;-78
2023/04/03 09:14:41;;;;;;;6.67;4.30;;;7.80;99.90;;;;;;5055360;28;20765;-79
2023/04/03 09:17:30;;;;;;;7.20;4.47;;;7.80;99.90;;;;;;5055133;28;20195;-76
2023/04/03 09:20:04;;;;;;;7.07;4.40;;;7.80;99.90;;;;;;5055416;28;20670;-77
2023/04/03 09:22:33;;;;;;;5.03;3.73;;;8.00;99.90;;;;;;5055558;28;20514;-78
2023/04/03 09:25:15;;;;;;;5.90;3.77;;;8.10;99.90;;;;;;5057236;28;20213;-77
2023/04/03 09:27:41;;;;;;;5.13;3.60;;;8.10;99.90;;;;;;5056897;28;20167;-78
2023/04/03 09:30:16;;;;;;;7.63;3.70;;;8.10;99.90;;;;;;5054075;28;20632;-77
2023/04/03 09:32:46;;;;;;;6.37;3.47;;;8.30;99.90;;;;;;5054036;28;20167;-78
2023/04/03 09:35:26;;;;;;;4.40;2.63;;;8.50;99.90;;;;;;5053734;28;20172;-76
2023/04/03 09:38:09;;;;;;;8.53;2.80;;;8.30;99.90;;;;;;5053633;28;20201;-78
2023/04/03 09:40:41;;;;;;;5.23;2.87;;;8.40;99.90;;;;;;5052925;28;20176;-78
2023/04/03 09:43:38;;;;;;;4.60;2.50;;;8.40;99.90;;;;;;5053905;28;20171;-77
2023/04/03 09:46:18;;;;;;;4.47;2.70;;;8.40;99.90;;;;;;5050073;28;20176;-79
2023/04/03 09:49:00;;;;;;;6.53;2.43;;;8.40;99.90;;;;;;5053472;28;20167;-77
2023/04/03 09:51:30;;;;;;;5.40;2.40;;;8.20;99.90;;;;;;5053161;28;20235;-77
2023/04/03 09:53:58;;;;;;;5.13;2.43;;;8.40;99.90;;;;;;5053082;28;20180;-76
2023/04/03 09:56:31;;;;;;;4.97;2.30;;;8.40;99.90;;;;;;5052862;28;20179;-77
2023/04/03 09:59:00;;;;;;;6.50;2.80;;;8.50;99.90;;;;;;5052581;28;20183;-79
2023/04/03 10:01:38;;;;;;;6.40;2.43;;;8.70;99.90;;;;;;5052647;28;20637;-78
2023/04/03 10:04:12;;;;;;;5.93;2.50;;;8.80;99.90;;;;;;5052667;28;20167;-77
2023/04/03 10:06:46;;;;;;;8.60;2.97;;;8.90;99.90;;;;;;5052654;28;20298;-79
2023/04/03 10:09:24;;;;;;;4.87;3.03;;;9.00;99.90;;;;;;5052603;28;20171;-77
2023/04/03 10:12:04;;;;;;;6.60;2.60;;;9.10;99.90;;;;;;5052577;28;20191;-79
2023/04/03 10:14:32;;;;;;;6.80;1.70;;;9.30;99.90;;;;;;5053915;28;20167;-77
2023/04/03 10:17:18;;;;;;;3.23;1.50;;;9.20;99.90;;;;;;5052638;28;20567;-77
2023/04/03 10:19:49;;;;;;;5.43;1.60;;;9.30;99.90;;;;;;5053608;28;20202;-78
2023/04/03 10:23:00;;;;;;;2.77;1.60;;;9.20;99.90;;;;;;5052669;28;20266;-77
2023/04/03 10:25:58;;;;;;;4.87;1.90;;;9.20;99.90;;;;;;5052457;28;20179;-78
2023/04/03 10:28:54;;;;;;;5.17;2.27;;;9.20;99.90;;;;;;5052317;28;20182;-76
2023/04/03 10:31:36;;;;;;;5.30;1.90;;;9.40;99.90;;;;;;5053938;28;20164;-79
2023/04/03 10:34:22;;;;;;;4.27;1.73;;;9.50;99.90;;;;;;5052156;28;20262;-79
2023/04/03 10:36:57;;;;;;;4.60;1.60;;;9.70;99.90;;;;;;5052234;28;20237;-78
2023/04/03 10:39:43;;;;;;;4.23;2.10;;;9.70;99.90;;;;;;5052313;28;20282;-79
2023/04/03 10:42:09;;;;;;;5.13;2.33;;;9.80;99.90;;;;;;5053733;28;20238;-78
2023/04/03 10:45:14;;;;;;;4.33;2.20;;;9.80;99.90;;;;;;5053322;28;20172;-79
2023/04/03 10:47:46;;;;;;;3.93;2.00;;;9.90;99.90;;;;;;5049159;28;20643;-77
2023/04/03 10:50:26;;;;;;;3.57;1.60;;;10.00;99.90;;;;;;5052782;28;20203;-78
2023/04/03 10:53:13;;;;;;;2.93;1.80;;;10.10;99.90;;;;;;5051746;28;20210;-79
2023/04/03 10:55:43;;;;;;;4.97;1.43;;;10.30;99.90;;;;;;5052532;28;20547;-78
2023/04/03 10:58:40;;;;;;;3.00;1.20;;;10.50;98.10;;;;;;5052543;28;20195;-77
2023/04/03 11:01:14;;;;;;;2.40;1.10;;;11.00;96.40;;;;;;5044469;28;20192;-77
2023/04/03 11:03:44;;;;;;;3.43;1.30;;;11.40;94.40;;;;;;5053287;28;20507;-77
2023/04/03 11:06:13;;;;;;;4.73;1.90;;;11.40;94.20;;;;;;5051681;28;20230;-78
2023/04/03 11:08:48;;;;;;;3.40;1.70;;;11.50;95.00;;;;;;5053188;28;20511;-78
2023/04/03 11:11:25;;;;;;;2.57;1.33;;;11.60;94.80;;;;;;5051785;28;20189;-79
2023/04/03 11:13:53;;;;;;;3.60;1.67;;;11.80;93.60;;;;;;5051433;28;20184;-79
2023/04/03 11:16:26;;;;;;;4.70;1.83;;;12.10;94.60;;;;;;5051555;28;20186;-80
2023/04/03 11:19:02;;;;;;;7.27;2.00;;;12.10;94.70;;;;;;5051419;28;20702;-77
2023/04/03 11:21:34;;;;;;;3.33;1.53;;;11.80;94.80;;;;;;5051600;28;20227;-79
2023/04/03 11:24:07;;;;;;;4.00;1.70;;;12.00;94.20;;;;;;5051294;28;20174;-77
2023/04/03 11:26:40;;;;;;;3.77;1.60;;;12.00;93.50;;;;;;5051576;28;20687;-77
2023/04/03 11:29:13;;;;;;;3.83;1.70;;;12.10;94.60;;;;;;5052554;28;20227;-78
2023/04/03 11:32:10;;;;;;;3.53;1.40;;;12.00;94.60;;;;;;5051203;28;20328;-78
2023/04/03 11:34:42;;;;;;;4.23;1.43;;;12.40;92.40;;;;;;5052388;28;20171;-78
2023/04/03 11:37:21;;;;;;;2.97;1.30;;;12.40;91.10;;;;;;5052530;28;20229;-78
2023/04/03 11:40:00;;;;;;;2.37;1.13;;;12.40;91.50;;;;;;5052694;28;20228;-79
2023/04/03 11:42:45;;;;;;;3.53;1.33;;;13.00;91.40;;;;;;5051365;28;20250;-79
2023/04/03 11:45:23;;;;;;;4.30;1.60;;;13.50;91.00;;;;;;5052080;28;20210;-77
2023/04/03 11:47:51;;;;;;;4.33;1.33;;;13.70;90.60;;;;;;5051224;28;20171;-77
2023/04/03 11:50:38;;;;;;;3.40;1.17;;;13.90;90.20;;;;;;5052352;28;20246;-77
2023/04/03 11:53:08;;;;;;;2.23;1.33;;;14.10;90.20;;;;;;5052323;28;20156;-77
2023/04/03 11:55:33;;;;;;;3.57;1.43;;;14.50;89.30;;;;;;5052580;28;20550;-78
2023/04/03 11:57:59;;;;;;;2.37;1.50;;;14.40;88.40;;;;;;5050933;28;20199;-77
2023/04/03 12:00:43;;;;;;;3.03;1.73;;;14.50;89.70;;;;;;5051906;28;20396;-78
2023/04/03 12:03:25;;;;;;;3.17;1.43;;;14.60;88.70;;;;;;5052333;28;20166;-77
2023/04/03 12:06:07;;;;;;;3.20;1.50;;;14.70;88.30;;;;;;5054893;28;20186;-77
2023/04/03 12:08:32;;;;;;;3.33;1.53;;;15.00;87.50;;;;;;5054906;28;20206;-78
2023/04/03 12:11:16;;;;;;;3.43;1.37;;;15.30;87.30;;;;;;5054824;28;20176;-79
2023/04/03 12:13:53;;;;;;;2.93;1.30;;;15.70;84.60;;;;;;5054997;28;20540;-78
2023/04/03 12:16:20;;;;;;;3.47;1.60;;;15.90;81.00;;;;;;5054780;28;20183;-78
2023/04/03 12:18:48;;;;;;;2.37;1.40;;;15.80;77.00;;;;;;5055690;28;20207;-78
2023/04/03 12:21:21;;;;;;;4.00;1.30;;;16.00;72.80;;;;;;5055877;28;20160;-77
2023/04/03 12:24:23;;;;;;;1.80;1.20;;;16.00;71.70;;;;;;5054654;28;20574;-79
2023/04/03 12:26:58;;;;;;;2.73;1.10;;;16.20;71.20;;;;;;5055965;28;20622;-78
2023/04/03 12:29:38;;;;;;;4.63;1.20;;;16.00;70.40;;;;;;5055507;28;20192;-77
2023/04/03 12:32:23;;;;;;;2.33;1.23;;;15.90;69.00;;;;;;5054586;28;20168;-78
2023/04/03 12:35:01;;;;;;;3.87;1.30;;;16.70;68.00;;;;;;5055762;28;20168;-79
2023/04/03 12:38:04;;;;;;;3.23;1.20;;;17.20;65.60;;;;;;5055795;28;20744;-78
2023/04/03 12:40:41;;;;;;;3.20;1.23;;;17.20;66.40;;;;;;5055658;28;20158;-78
2023/04/03 12:43:34;;;;;;;4.03;0.97;;;17.40;65.10;;;;;;5055357;28;20529;-78
2023/04/03 12:46:04;;;;;;;2.30;1.17;;;17.20;65.20;;;;;;5054085;28;20176;-76
2023/04/03 12:48:31;;;;;;;3.90;2.40;;;17.20;64.10;;;;;;5054470;28;20635;-76
2023/04/03 12:50:58;;;;;;;6.73;2.20;;;16.50;63.60;;;;;;5053962;28;20179;-77
2023/04/03 12:53:34;;;;;;;5.97;1.63;;;17.00;62.50;;;;;;5054135;28;20178;-78
2023/04/03 12:56:20;;;;;;;3.10;1.53;;;18.00;63.70;;;;;;5053975;28;20228;-77
2023/04/03 12:58:49;;;;;;;3.60;1.63;;;17.90;60.40;;;;;;5053732;28;20348;-79
2023/04/03 13:01:18;;;;;;;3.27;1.40;;;17.90;60.70;;;;;;5053893;28;20160;-78
2023/04/03 13:03:51;;;;;;;2.90;1.00;;;18.00;59.10;;;;;;5053874;28;20175;-78
2023/04/03 13:06:38;;;;;;;4.40;1.30;;;18.00;59.40;;;;;;5055601;28;20214;-78
2023/04/03 13:09:06;;;;;;;3.03;1.53;;;17.80;58.20;;;;;;5055628;28;20175;-78